createdAt,value
2022-11-29T01:31:15.293Z,18.3
2022-11-29T02:11:24.052Z,18.3
2022-11-29T03:11:37.035Z,18.4
2022-11-29T03:21:39.091Z,18.4
2022-11-29T04:01:49.141Z,18.4
2022-11-29T05:02:02.218Z,18.4
2022-11-29T05:52:14.480Z,18.4
2022-11-29T07:12:32.398Z,18.4
2022-11-29T07:22:34.838Z,18.4
2022-11-29T07:42:39.357Z,18.3
2022-11-29T07:52:41.158Z,18.3
2022-11-29T08:02:43.479Z,18.3
2022-11-29T08:12:45.942Z,18.3
2022-11-29T08:22:47.730Z,18.3
2022-11-29T08:42:52.555Z,18.3
2022-11-29T08:52:55.046Z,18.1
2022-11-29T09:02:57.497Z,17.8
2022-11-29T09:12:59.432Z,17.6
2022-11-29T09:23:01.249Z,17.5
2022-11-29T09:33:03.334Z,17.5
2022-11-29T09:43:05.863Z,17.5
2022-11-29T09:53:08.239Z,17.5
2022-11-29T10:03:10.051Z,17.6
2022-11-29T10:13:12.090Z,17.7
2022-11-29T10:23:14.148Z,17.8
2022-11-29T10:33:16.028Z,17.9
2022-11-29T10:43:18.371Z,18
2022-11-29T10:53:20.289Z,18
2022-11-29T11:03:22.879Z,18.1
2022-11-29T11:13:25.376Z,18.1
2022-11-29T11:23:27.400Z,18.1
2022-11-29T11:33:29.806Z,18.1
2022-11-29T11:43:31.506Z,18.2
2022-11-29T11:53:33.633Z,18.2
2022-11-29T12:03:35.694Z,18.2
2022-11-29T12:13:38.175Z,18.2
2022-11-29T12:23:39.956Z,18.2
2022-11-29T12:33:41.859Z,18.2
2022-11-29T12:43:43.718Z,18.2
2022-11-29T12:53:45.744Z,18.2
2022-11-29T13:03:47.931Z,18.2
2022-11-29T13:13:49.688Z,18.2
2022-11-29T13:24:08.640Z,18.2
2022-11-29T13:33:54.281Z,18.3
2022-11-29T13:43:56.450Z,18.3
2022-11-29T13:53:58.236Z,18.3
2022-11-29T14:04:00.481Z,18.3
2022-11-29T14:14:02.205Z,18.3
2022-11-29T14:24:04.740Z,18.3
2022-11-29T14:34:07.196Z,18.3
2022-11-29T14:44:09.823Z,18.3
2022-11-29T14:54:12.396Z,18.3
2022-11-29T15:04:14.157Z,18.3
2022-11-29T15:14:16.565Z,18.3
2022-11-29T15:24:19.683Z,18.3
2022-11-29T15:34:20.300Z,18.3
2022-11-29T15:44:22.343Z,18.3
2022-11-29T15:54:24.633Z,18.3
2022-11-29T16:04:26.557Z,18.3
2022-11-29T16:14:29.120Z,18.3
2022-11-29T16:24:31.555Z,18.3
2022-11-29T16:34:33.891Z,18.3
2022-11-29T16:44:36.037Z,18.3
2022-11-29T16:54:38.614Z,18.3
2022-11-29T17:14:43.034Z,18.3
2022-11-29T17:24:48.173Z,18.3
2022-11-29T17:34:48.349Z,18.3
2022-11-29T17:44:50.331Z,18.3
2022-11-29T17:54:52.785Z,18.3
2022-11-29T18:04:54.679Z,18.3
2022-11-29T18:14:57.007Z,18.3
2022-11-29T18:25:16.105Z,18.3
2022-11-29T18:35:00.960Z,18.3
2022-11-29T18:45:03.626Z,18.3
2022-11-29T18:55:05.844Z,18.3
2022-11-29T19:05:07.733Z,18.3
2022-11-29T19:15:09.728Z,18.3
2022-11-29T19:25:11.579Z,18.3
2022-11-29T19:35:14.235Z,18.3
2022-11-29T19:45:17.609Z,18.3
2022-11-29T19:55:18.607Z,18.3
2022-11-29T20:05:21.061Z,18.3
2022-11-29T20:15:22.977Z,18.2
2022-11-29T20:25:25.256Z,18.2
2022-11-29T20:35:26.972Z,18.3
2022-11-29T20:35:48.898Z,18.3
2022-11-29T20:45:36.615Z,18.3
2022-11-29T20:55:41.434Z,18.3
2022-11-29T21:05:40.935Z,18.3
2022-11-29T21:25:45.843Z,18.2
2022-11-29T21:35:47.820Z,18.3
2022-11-29T21:45:49.690Z,18.2
2022-11-29T21:55:52.057Z,18.2
2022-11-29T22:05:54.013Z,18.2
2022-11-29T22:15:55.811Z,18.2
2022-11-29T22:56:05.306Z,18.2
2022-11-29T23:16:10.302Z,18.2
2022-11-29T23:36:14.441Z,18.1
2022-11-29T23:46:16.314Z,18.1
2022-11-29T23:56:17.957Z,18.1
